Time;durP1;ratioP1;P1;durP2;ratioP2;P2;SDS_P1;SDS_P2;PMS_P1;PMS_P2;Temp;Humidity;BMP_temperature;BMP_pressure;BME280_temperature;BME280_humidity;BME280_pressure;Samples;Min_cycle;Max_cycle;Signal;HPM_P1;HPM_P2
2023/04/20 00:01:14;;;;;;;15.30;8.27;;;;;;;9.92;nan;99385.06;4968018;28;20189;-76
2023/04/20 00:03:40;;;;;;;7.70;6.70;;;;;;;9.90;nan;99386.94;4970083;28;20211;-77
2023/04/20 00:06:06;;;;;;;9.07;6.13;;;;;;;9.91;nan;99379.91;4965696;28;20232;-77
2023/04/20 00:08:32;;;;;;;9.83;6.90;;;;;;;9.86;nan;99372.34;4967905;28;20971;-77
2023/04/20 00:10:57;;;;;;;8.93;7.67;;;;;;;9.73;nan;99372.28;4966745;28;20470;-77
2023/04/20 00:13:23;;;;;;;7.43;6.70;;;;;;;9.69;nan;99368.19;4968718;28;20244;-77
2023/04/20 00:15:48;;;;;;;9.30;7.70;;;;;;;9.71;nan;99378.56;4966603;28;20215;-77
2023/04/20 00:18:14;;;;;;;11.80;7.43;;;;;;;9.72;nan;99362.75;4969589;28;20226;-76
2023/04/20 00:20:39;;;;;;;10.93;7.80;;;;;;;9.72;nan;99357.50;4968271;28;20568;-76
2023/04/20 00:23:06;;;;;;;14.27;7.93;;;;;;;9.70;nan;99345.44;4965450;28;21193;-76
2023/04/20 00:25:31;;;;;;;11.55;7.28;;;;;;;9.64;nan;99341.41;4954609;28;20197;-77
2023/04/20 00:27:57;;;;;;;12.20;7.20;;;;;;;9.62;nan;99335.44;4966671;28;20527;-77
2023/04/20 00:30:22;;;;;;;10.13;7.23;;;;;;;9.60;nan;99339.09;4947370;28;20227;-76
2023/04/20 00:32:47;;;;;;;13.33;8.07;;;;;;;9.59;nan;99337.41;4945751;28;20684;-76
2023/04/20 00:35:13;;;;;;;9.60;8.03;;;;;;;9.58;nan;99335.72;4969564;28;20207;-76
2023/04/20 00:37:43;;;;;;;11.02;8.40;;;;;;;9.56;nan;99322.72;4961896;28;20188;-76
2023/04/20 00:40:08;;;;;;;8.67;6.93;;;;;;;9.49;nan;99319.63;4969980;28;20487;-76
2023/04/20 00:42:36;;;;;;;7.85;7.10;;;;;;;9.45;nan;99317.28;4954047;28;20287;-76
2023/04/20 00:45:01;;;;;;;12.70;8.90;;;;;;;9.44;nan;99310.38;4969035;28;20631;-78
2023/04/20 00:47:28;;;;;;;11.07;7.90;;;;;;;9.46;nan;99311.97;4970228;28;20200;-76
2023/04/20 00:49:54;;;;;;;10.00;7.37;;;;;;;9.49;nan;99305.69;4968004;28;20207;-77
2023/04/20 00:52:20;;;;;;;9.73;8.05;;;;;;;9.46;nan;99303.25;4969597;28;20684;-77
2023/04/20 00:54:45;;;;;;;7.83;6.97;;;;;;;9.44;nan;99308.59;4968687;28;20299;-76
2023/04/20 00:57:12;;;;;;;10.87;7.37;;;;;;;9.43;nan;99296.44;4968213;28;20459;-76
2023/04/20 00:59:38;;;;;;;13.18;7.15;;;;;;;9.44;nan;99298.09;4972407;28;20199;-77
2023/04/20 01:02:04;;;;;;;7.40;6.07;;;;;;;9.46;nan;99291.00;4968998;28;20195;-77
2023/04/20 01:04:29;;;;;;;12.03;8.10;;;;;;;9.48;nan;99290.91;4968194;28;20444;-77
2023/04/20 01:06:57;;;;;;;9.63;6.68;;;;;;;9.47;nan;99291.81;4950336;28;21180;-77
2023/04/20 01:09:22;;;;;;;12.63;7.40;;;;;;;9.42;nan;99292.09;4946638;28;20208;-77
2023/04/20 01:11:48;;;;;;;9.40;7.00;;;;;;;9.37;nan;99286.34;4966220;28;20220;-78
2023/04/20 01:14:15;;;;;;;9.93;7.15;;;;;;;9.31;nan;99284.09;4968387;28;20201;-77
2023/04/20 01:16:40;;;;;;;10.10;7.50;;;;;;;9.22;nan;99284.69;4968018;28;20505;-77
2023/04/20 01:19:06;;;;;;;9.97;7.57;;;;;;;9.14;nan;99285.16;4965911;28;20200;-78
2023/04/20 01:21:32;;;;;;;10.23;7.87;;;;;;;9.10;nan;99281.06;4969581;28;20204;-78
2023/04/20 01:23:58;;;;;;;8.25;6.70;;;;;;;9.08;nan;99268.06;4967443;28;20439;-77
2023/04/20 01:26:24;;;;;;;8.97;6.17;;;;;;;9.08;nan;99265.44;4968794;28;20680;-77
2023/04/20 01:28:50;;;;;;;9.80;7.15;;;;;;;9.08;nan;99262.81;4951548;28;20195;-78
2023/04/20 01:31:15;;;;;;;7.90;6.30;;;;;;;9.09;nan;99266.28;4968425;28;20664;-78
2023/04/20 01:33:41;;;;;;;8.63;6.60;;;;;;;9.08;nan;99259.34;4967274;28;20700;-77
2023/04/20 01:36:07;;;;;;;7.20;6.50;;;;;;;9.07;nan;99257.66;4966496;28;20212;-77
2023/04/20 01:38:33;;;;;;;10.20;6.85;;;;;;;9.06;nan;99256.81;4968784;28;20405;-78
2023/04/20 01:41:01;;;;;;;7.20;6.00;;;;;;;9.05;nan;99249.06;4968636;28;20235;-78
2023/04/20 01:43:27;;;;;;;8.48;5.90;;;;;;;9.04;nan;99245.59;4967806;28;20218;-78
2023/04/20 01:45:52;;;;;;;8.33;5.90;;;;;;;9.05;nan;99241.22;4967912;28;20204;-78
2023/04/20 01:48:17;;;;;;;8.67;6.27;;;;;;;9.03;nan;99236.06;4947443;28;20359;-77
2023/04/20 01:50:43;;;;;;;6.80;5.60;;;;;;;9.02;nan;99233.56;4967108;28;20564;-77
2023/04/20 01:53:12;;;;;;;6.57;5.88;;;;;;;9.02;nan;99231.78;4948489;28;20199;-77
2023/04/20 01:55:38;;;;;;;5.38;4.88;;;;;;;9.02;nan;99226.53;4969012;28;20223;-78
2023/04/20 01:58:03;;;;;;;6.13;4.77;;;;;;;8.97;nan;99228.59;4969217;28;20780;-78
2023/04/20 02:00:29;;;;;;;9.40;6.30;;;;;;;8.91;nan;99233.38;4948148;28;20204;-78
2023/04/20 02:02:54;;;;;;;8.77;5.47;;;;;;;8.84;nan;99225.91;4950522;28;20651;-78
2023/04/20 02:05:21;;;;;;;6.95;5.47;;;;;;;8.82;nan;99232.16;4947894;28;20596;-78
2023/04/20 02:07:47;;;;;;;5.43;4.93;;;;;;;8.77;nan;99219.34;4967191;28;20296;-78
2023/04/20 02:10:13;;;;;;;5.67;4.80;;;;;;;8.74;nan;99219.56;4969458;28;20275;-78
2023/04/20 02:12:43;;;;;;;7.07;4.55;;;;;;;8.73;nan;99222.28;4949989;28;20421;-78
2023/04/20 02:15:09;;;;;;;7.37;5.07;;;;;;;8.73;nan;99212.66;4945831;28;20621;-79
2023/04/20 02:17:35;;;;;;;9.63;5.43;;;;;;;8.74;nan;99213.47;4946929;28;20207;-77
2023/04/20 02:20:05;;;;;;;5.57;4.70;;;;;;;8.70;nan;99212.84;4967803;28;20263;-77
2023/04/20 02:22:33;;;;;;;6.28;4.82;;;;;;;8.68;nan;99203.41;4949358;28;20447;-77
2023/04/20 02:25:00;;;;;;;7.43;5.10;;;;;;;8.63;nan;99201.88;4966995;28;20196;-78
2023/04/20 02:27:26;;;;;;;5.70;4.85;;;;;;;8.61;nan;99198.53;4945519;28;20286;-76
2023/04/20 02:29:51;;;;;;;4.87;3.57;;;;;;;8.61;nan;99201.16;4956584;28;20294;-76
2023/04/20 02:32:17;;;;;;;6.43;4.43;;;;;;;8.63;nan;99198.44;4966079;28;20323;-76
2023/04/20 02:34:42;;;;;;;6.40;5.20;;;;;;;8.64;nan;99195.72;4958309;28;20644;-79
2023/04/20 02:37:07;;;;;;;5.90;4.90;;;;;;;8.63;nan;99187.97;4953871;28;20432;-76
2023/04/20 02:39:33;;;;;;;4.27;3.90;;;;;;;8.60;nan;99191.59;4954792;28;20191;-75
2023/04/20 02:41:59;;;;;;;6.30;4.63;;;;;;;8.56;nan;99195.38;4965074;28;20200;-76
2023/04/20 02:44:24;;;;;;;4.07;3.67;;;;;;;8.50;nan;99192.28;4967027;28;20235;-76
2023/04/20 02:46:50;;;;;;;6.17;5.00;;;;;;;8.45;nan;99187.31;4968349;28;20524;-77
2023/04/20 02:49:16;;;;;;;6.10;4.05;;;;;;;8.39;nan;99187.69;4949079;28;20271;-77
2023/04/20 02:51:43;;;;;;;5.95;4.40;;;;;;;8.33;nan;99182.81;4946230;28;20208;-77
2023/04/20 02:54:08;;;;;;;4.40;4.00;;;;;;;8.26;nan;99179.72;4950039;28;20227;-77
2023/04/20 02:56:34;;;;;;;6.50;5.90;;;;;;;8.22;nan;99182.63;4950615;28;20207;-78
2023/04/20 02:59:04;;;;;;;5.30;4.35;;;;;;;8.16;nan;99181.22;4968750;28;20454;-77
2023/04/20 03:01:49;;;;;;;5.75;4.60;;;;;;;8.13;nan;99181.41;4952138;28;20203;-77
2023/04/20 03:04:19;;;;;;;5.07;4.40;;;;;;;8.10;nan;99177.22;4954118;28;21723;-77
2023/04/20 03:06:53;;;;;;;5.15;4.38;;;;;;;8.06;nan;99174.88;4982701;23;20242;-79
2023/04/20 03:09:24;;;;;;;7.13;5.60;;;;;;;8.05;nan;99173.19;4947360;28;20201;-79
2023/04/20 03:12:09;;;;;;;5.43;4.93;;;;;;;8.03;nan;99170.66;4958564;28;20250;-79
2023/04/20 03:15:05;;;;;;;6.72;4.30;;;;;;;8.01;nan;99172.53;4948389;28;20208;-79
2023/04/20 03:17:45;;;;;;;5.53;4.40;;;;;;;7.98;nan;99170.09;4978730;28;20223;-79
2023/04/20 03:20:12;;;;;;;4.85;3.55;;;;;;;7.97;nan;99166.63;4964179;28;20477;-80
2023/04/20 03:22:37;;;;;;;6.80;4.40;;;;;;;7.96;nan;99161.50;4960509;28;20219;-79
2023/04/20 03:25:05;;;;;;;4.15;3.78;;;;;;;7.93;nan;99159.91;4959289;28;20270;-79
2023/04/20 03:27:46;;;;;;;4.25;3.90;;;;;;;7.91;nan;99166.16;4979332;28;20302;-79
2023/04/20 03:30:13;;;;;;;5.40;4.82;;;;;;;7.88;nan;99172.41;4961718;28;20215;-80
2023/04/20 03:32:40;;;;;;;5.53;4.60;;;;;;;7.82;nan;99169.31;4964090;28;20212;-79
2023/04/20 03:35:06;;;;;;;6.10;4.15;;;;;;;7.77;nan;99172.19;4961084;28;20598;-79
2023/04/20 03:37:31;;;;;;;5.57;5.05;;;;;;;7.74;nan;99164.53;4963040;28;20203;-79
2023/04/20 03:39:57;;;;;;;4.47;4.07;;;;;;;7.74;nan;99165.38;4963852;28;20294;-79
2023/04/20 03:42:23;;;;;;;7.32;4.65;;;;;;;7.72;nan;99159.44;4963295;28;20246;-79
2023/04/20 03:44:49;;;;;;;6.10;4.97;;;;;;;7.69;nan;99153.50;4961316;28;20670;-79
2023/04/20 03:47:14;;;;;;;6.20;4.70;;;;;;;7.66;nan;99154.53;4960448;28;20212;-79
2023/04/20 03:49:40;;;;;;;5.20;3.93;;;;;;;7.64;nan;99155.56;4971531;28;20201;-79
2023/04/20 03:52:06;;;;;;;3.37;3.07;;;;;;;7.58;nan;99156.75;4965194;28;20243;-80
2023/04/20 03:54:32;;;;;;;6.10;4.23;;;;;;;7.56;nan;99152.56;4968588;28;20226;-80
2023/04/20 03:56:57;;;;;;;5.55;4.60;;;;;;;7.54;nan;99165.72;4965569;28;20518;-79
2023/04/20 03:59:25;;;;;;;6.22;4.82;;;;;;;7.52;nan;99162.34;4973254;28;20282;-80
2023/04/20 04:01:51;;;;;;;6.50;4.63;;;;;;;7.49;nan;99159.91;4965551;28;20196;-79
2023/04/20 04:04:16;;;;;;;5.13;4.23;;;;;;;7.44;nan;99151.50;4963566;28;20454;-79
2023/04/20 04:06:42;;;;;;;4.63;4.23;;;;;;;7.37;nan;99158.88;4964434;28;20514;-80
2023/04/20 04:09:08;;;;;;;6.87;4.17;;;;;;;7.26;nan;99148.16;4972464;28;20204;-79
2023/04/20 04:11:33;;;;;;;4.20;3.80;;;;;;;7.21;nan;99150.19;4964597;28;20556;-80
2023/04/20 04:13:59;;;;;;;6.30;4.77;;;;;;;7.11;nan;99155.13;4964394;28;20444;-79
2023/04/20 04:16:25;;;;;;;8.20;4.03;;;;;;;7.04;nan;99167.66;4964242;28;20756;-79
2023/04/20 04:18:50;;;;;;;5.53;4.13;;;;;;;6.96;nan;99161.19;4965765;28;20211;-79
2023/04/20 04:21:16;;;;;;;6.20;4.80;;;;;;;6.87;nan;99155.56;4967597;28;20225;-79
2023/04/20 04:23:47;;;;;;;7.15;4.78;;;;;;;6.78;nan;99152.66;4970441;28;20192;-81
2023/04/20 04:26:25;;;;;;;6.47;3.88;;;;;;;6.69;nan;99156.56;4965940;28;20645;-79
2023/04/20 04:28:51;;;;;;;7.03;3.70;;;;;;;6.62;nan;99155.25;4967780;28;20419;-79
2023/04/20 04:31:20;;;;;;;6.75;5.07;;;;;;;6.58;nan;99154.56;4961387;28;20565;-79
2023/04/20 04:33:46;;;;;;;7.43;4.22;;;;;;;6.51;nan;99153.22;4963462;28;20441;-79
2023/04/20 04:36:18;;;;;;;6.28;5.30;;;;;;;6.48;nan;99149.91;4960850;28;20978;-79
2023/04/20 04:38:43;;;;;;;6.23;5.13;;;;;;;6.42;nan;99154.53;4971324;28;20229;-79
2023/04/20 04:41:11;;;;;;;7.23;5.43;;;;;;;6.35;nan;99150.59;4967281;28;20539;-80
2023/04/20 04:43:40;;;;;;;5.57;4.97;;;;;;;6.25;nan;99149.41;4969201;28;21244;-80
2023/04/20 04:46:16;;;;;;;6.03;4.35;;;;;;;6.16;nan;99152.50;4962550;28;20214;-79
2023/04/20 04:48:42;;;;;;;4.80;4.38;;;;;;;6.07;nan;99152.97;4966508;28;20208;-79
2023/04/20 04:51:08;;;;;;;4.40;4.00;;;;;;;6.00;nan;99159.44;4964965;28;20207;-79
2023/04/20 04:53:34;;;;;;;4.70;3.97;;;;;;;5.94;nan;99157.97;4962400;28;20459;-79
2023/04/20 04:56:00;;;;;;;4.28;3.85;;;;;;;5.92;nan;99157.19;4965674;28;20471;-79
2023/04/20 04:58:25;;;;;;;5.00;4.00;;;;;;;5.91;nan;99152.88;4967521;28;20299;-79
2023/04/20 05:00:51;;;;;;;7.20;4.60;;;;;;;5.89;nan;99167.78;4964666;28;20196;-79
2023/04/20 05:03:16;;;;;;;6.33;5.60;;;;;;;5.89;nan;99155.59;4966403;28;20966;-79
2023/04/20 05:05:42;;;;;;;7.20;5.13;;;;;;;5.89;nan;99163.41;4966738;28;20506;-80
2023/04/20 05:08:07;;;;;;;5.10;3.70;;;;;;;5.89;nan;99158.19;4984148;28;20204;-80
2023/04/20 05:10:33;;;;;;;5.17;4.33;;;;;;;5.92;nan;99162.41;4987012;28;20807;-79
2023/04/20 05:12:59;;;;;;;7.20;4.60;;;;;;;5.95;nan;99167.50;4986788;28;20506;-79
2023/04/20 05:15:25;;;;;;;4.57;4.10;;;;;;;5.94;nan;99169.25;4984198;28;20220;-79
2023/04/20 05:17:51;;;;;;;8.23;5.15;;;;;;;5.94;nan;99171.88;4985194;28;20459;-79
2023/04/20 05:20:16;;;;;;;5.73;4.10;;;;;;;5.94;nan;99171.00;4986908;28;20195;-79
2023/04/20 05:22:42;;;;;;;7.53;5.03;;;;;;;5.95;nan;99160.50;4986548;28;21092;-79
2023/04/20 05:25:08;;;;;;;4.57;4.17;;;;;;;6.00;nan;99169.88;4984658;28;20235;-80
2023/04/20 05:27:33;;;;;;;9.80;5.33;;;;;;;6.02;nan;99162.78;4985647;28;20782;-80
2023/04/20 05:29:58;;;;;;;9.53;4.63;;;;;;;6.10;nan;99165.84;4985042;28;20465;-80
2023/04/20 05:32:24;;;;;;;6.50;3.60;;;;;;;6.17;nan;99164.59;4985139;28;20436;-79
2023/04/20 05:34:49;;;;;;;6.40;4.93;;;;;;;6.28;nan;99159.66;4984650;28;20763;-79
2023/04/20 05:37:15;;;;;;;7.13;4.73;;;;;;;6.35;nan;99163.63;4987004;28;20501;-79
2023/04/20 05:39:40;;;;;;;4.97;4.57;;;;;;;6.37;nan;99153.97;4986385;28;20654;-79
2023/04/20 05:42:06;;;;;;;6.10;4.70;;;;;;;6.39;nan;99162.53;4984406;28;20216;-79
2023/04/20 05:44:32;;;;;;;6.30;4.40;;;;;;;6.46;nan;99162.22;4981766;28;20756;-79
2023/04/20 05:46:58;;;;;;;7.35;5.20;;;;;;;6.60;nan;99155.31;4984747;28;20220;-79
2023/04/20 05:49:24;;;;;;;6.77;4.77;;;;;;;6.72;nan;99152.97;4985633;28;20205;-80
2023/04/20 05:51:50;;;;;;;9.43;5.30;;;;;;;6.81;nan;99158.53;4981869;28;20726;-80
2023/04/20 05:54:15;;;;;;;5.33;4.40;;;;;;;6.90;nan;99154.56;4983509;28;20207;-80
2023/04/20 05:56:41;;;;;;;7.97;5.30;;;;;;;7.00;nan;99157.50;4983670;28;20544;-79
2023/04/20 05:59:07;;;;;;;8.60;4.87;;;;;;;7.07;nan;99159.69;4985718;28;20744;-79
2023/04/20 06:01:33;;;;;;;6.35;5.18;;;;;;;7.19;nan;99157.31;4984262;28;20236;-79
2023/04/20 06:03:58;;;;;;;8.50;4.10;;;;;;;7.31;nan;99149.59;4983551;28;20645;-80
2023/04/20 06:06:24;;;;;;;6.40;4.57;;;;;;;7.42;nan;99148.13;4985781;28;20225;-79
2023/04/20 06:09:07;;;;;;;5.00;4.60;;;;;;;7.54;nan;99150.88;4986513;28;20637;-80
2023/04/20 06:11:33;;;;;;;8.77;6.97;;;;;;;8.00;nan;99152.53;4990167;28;20284;-79
2023/04/20 06:13:59;;;;;;;5.63;4.95;;;;;;;8.71;nan;99150.84;4984960;28;20192;-80
2023/04/20 06:16:25;;;;;;;6.33;4.97;;;;;;;9.38;nan;99149.09;4984616;28;20233;-79
2023/04/20 06:18:50;;;;;;;6.33;5.43;;;;;;;9.81;nan;99153.25;4986999;28;20245;-79
2023/04/20 06:21:16;;;;;;;4.83;4.10;;;;;;;10.06;nan;99148.00;4985508;28;20245;-79
2023/04/20 06:23:43;;;;;;;7.72;4.90;;;;;;;10.08;nan;99145.28;4987301;28;20188;-78
2023/04/20 06:26:09;;;;;;;7.05;5.80;;;;;;;9.94;nan;99146.22;4982822;28;20221;-78
2023/04/20 06:28:35;;;;;;;6.57;4.93;;;;;;;9.73;nan;99138.88;4988089;28;20668;-78
2023/04/20 06:31:01;;;;;;;6.68;5.35;;;;;;;9.49;nan;99137.91;4985469;28;20442;-79
2023/04/20 06:33:26;;;;;;;6.38;5.72;;;;;;;9.25;nan;99149.03;4988398;28;20281;-79
2023/04/20 06:35:53;;;;;;;5.00;4.50;;;;;;;9.06;nan;99145.94;4966563;28;20480;-78
2023/04/20 06:38:19;;;;;;;7.57;5.32;;;;;;;8.84;nan;99143.88;4984301;28;20202;-78
2023/04/20 06:40:45;;;;;;;7.22;6.22;;;;;;;8.61;nan;99146.19;4987616;28;20214;-78
2023/04/20 06:43:11;;;;;;;6.93;5.47;;;;;;;8.46;nan;99154.16;5064528;23;20231;-81
2023/04/20 06:45:36;;;;;;;6.50;5.73;;;;;;;8.31;nan;99153.28;4967772;28;20687;-80
2023/04/20 06:48:02;;;;;;;5.83;5.20;;;;;;;8.19;nan;99147.88;4952665;28;20226;-80
2023/04/20 06:50:27;;;;;;;7.53;5.95;;;;;;;8.12;nan;99143.09;4956445;28;20205;-82
2023/04/20 06:52:53;;;;;;;6.20;5.57;;;;;;;8.05;nan;99150.50;4955048;28;20214;-81
2023/04/20 06:55:20;;;;;;;6.93;5.50;;;;;;;7.94;nan;99145.91;4960078;28;20662;-82
2023/04/20 06:57:45;;;;;;;8.30;5.10;;;;;;;7.87;nan;99143.75;4952714;28;20743;-82
2023/04/20 07:00:11;;;;;;;6.23;5.53;;;;;;;7.83;nan;99143.09;4938495;28;20554;-81
2023/04/20 07:02:44;;;;;;;6.10;5.20;;;;;;;7.82;nan;99145.78;4955928;28;20668;-82
2023/04/20 07:05:10;;;;;;;6.93;5.80;;;;;;;7.86;nan;99137.69;4958379;28;20476;-82
2023/04/20 07:07:36;;;;;;;5.37;4.40;;;;;;;7.93;nan;99138.16;4957534;28;20457;-82
2023/04/20 07:10:02;;;;;;;6.88;4.82;;;;;;;8.03;nan;99139.28;4958923;28;20222;-82
2023/04/20 07:12:27;;;;;;;6.10;5.50;;;;;;;8.19;nan;99139.19;4961589;28;20230;-79
2023/04/20 07:14:53;;;;;;;5.77;5.10;;;;;;;8.37;nan;99142.41;4952905;28;20566;-80
2023/04/20 07:17:19;;;;;;;9.57;5.72;;;;;;;8.54;nan;99139.66;4955291;28;20713;-79
2023/04/20 07:19:44;;;;;;;6.10;5.00;;;;;;;8.72;nan;99131.56;4956183;28;20306;-79
2023/04/20 07:22:10;;;;;;;6.60;5.83;;;;;;;8.93;nan;99135.41;4955584;28;20641;-79
2023/04/20 07:24:35;;;;;;;6.90;6.00;;;;;;;9.13;nan;99138.53;4955167;28;20213;-80
2023/04/20 07:27:10;;;;;;;4.87;4.40;;;;;;;9.35;nan;99125.72;4955518;28;20224;-80
2023/04/20 07:29:35;;;;;;;6.90;6.15;;;;;;;9.55;nan;99132.22;4955966;28;20224;-79
2023/04/20 07:32:00;;;;;;;9.53;5.83;;;;;;;9.65;nan;99127.22;4955132;28;20231;-79
2023/04/20 07:34:26;;;;;;;5.90;5.30;;;;;;;9.69;nan;99133.91;4954929;28;21088;-79
2023/04/20 07:36:51;;;;;;;7.90;7.10;;;;;;;9.64;nan;99133.38;4952016;28;20230;-79
2023/04/20 07:39:16;;;;;;;9.60;6.00;;;;;;;9.59;nan;99138.97;4958275;28;20552;-80
2023/04/20 07:41:42;;;;;;;9.03;6.07;;;;;;;9.49;nan;99130.88;4952394;28;20241;-79
2023/04/20 07:44:08;;;;;;;5.83;5.00;;;;;;;9.44;nan;99135.56;4951807;28;20861;-79
2023/04/20 07:46:33;;;;;;;6.20;5.10;;;;;;;9.39;nan;99134.19;4945023;28;21206;-79
2023/04/20 07:48:58;;;;;;;9.80;7.13;;;;;;;9.34;nan;99124.00;4945679;28;20216;-79
2023/04/20 07:51:25;;;;;;;7.00;5.90;;;;;;;9.31;nan;99130.28;4948692;28;20471;-78
2023/04/20 07:53:50;;;;;;;6.68;5.00;;;;;;;9.26;nan;99121.91;4951333;28;20210;-79
2023/04/20 07:56:16;;;;;;;9.83;5.93;;;;;;;9.20;nan;99121.47;4949736;28;20616;-79
2023/04/20 07:58:41;;;;;;;6.57;5.57;;;;;;;9.19;nan;99123.25;4948961;28;20217;-79
2023/04/20 08:01:07;;;;;;;9.17;6.17;;;;;;;9.45;nan;99120.69;4952254;28;20522;-79
2023/04/20 08:03:32;;;;;;;7.20;5.23;;;;;;;9.92;nan;99109.59;4950257;28;20240;-79
2023/04/20 08:05:58;;;;;;;10.03;6.30;;;;;;;10.50;nan;99109.09;4947868;28;20301;-80
2023/04/20 08:08:23;;;;;;;5.33;4.53;;;;;;;10.88;nan;99103.72;4949646;28;20205;-80
2023/04/20 08:10:48;;;;;;;6.83;5.07;;;;;;;11.17;nan;99098.13;4947262;28;20192;-79
2023/04/20 08:13:14;;;;;;;7.17;5.57;;;;;;;11.30;nan;99093.63;4950566;28;20577;-79
2023/04/20 08:15:39;;;;;;;7.43;6.07;;;;;;;11.42;nan;99089.22;4950077;28;20236;-79
2023/04/20 08:18:05;;;;;;;7.50;5.10;;;;;;;11.61;nan;99089.53;4946352;28;20208;-79
2023/04/20 08:20:30;;;;;;;6.67;5.67;;;;;;;11.97;nan;99082.41;4951856;28;20303;-79
2023/04/20 08:22:55;;;;;;;9.37;6.00;;;;;;;12.27;nan;99080.97;4948726;28;20919;-78
2023/04/20 08:25:21;;;;;;;6.63;5.93;;;;;;;12.51;nan;99081.66;4947823;28;20304;-80
2023/04/20 08:27:46;;;;;;;9.57;6.43;;;;;;;12.58;nan;99069.66;4951741;28;20792;-80
2023/04/20 08:30:12;;;;;;;5.27;4.77;;;;;;;12.59;nan;99073.97;4948417;28;21144;-79
2023/04/20 08:32:38;;;;;;;5.90;4.80;;;;;;;12.97;nan;99074.44;4951197;28;20226;-80
2023/04/20 08:35:04;;;;;;;8.95;5.72;;;;;;;13.47;nan;99064.16;4949501;28;20221;-79
2023/04/20 08:37:29;;;;;;;6.27;5.67;;;;;;;14.00;nan;99055.25;4950219;28;20570;-79
2023/04/20 08:39:55;;;;;;;6.77;5.90;;;;;;;14.38;nan;99058.03;4949845;28;20208;-79
2023/04/20 08:42:20;;;;;;;5.97;4.70;;;;;;;14.54;nan;99064.63;4950624;28;20239;-78
2023/04/20 08:44:46;;;;;;;5.03;4.63;;;;;;;14.36;nan;99061.75;4950689;28;20296;-80
2023/04/20 08:47:11;;;;;;;8.60;5.63;;;;;;;14.26;nan;99056.47;4951280;28;20223;-79
2023/04/20 08:49:40;;;;;;;8.27;5.00;;;;;;;14.17;nan;99057.25;4948630;28;20218;-80
2023/04/20 08:52:09;;;;;;;7.78;5.65;;;;;;;14.13;nan;99054.06;4947802;28;20275;-80
2023/04/20 08:54:37;;;;;;;6.70;4.65;;;;;;;14.00;nan;99065.81;4949342;28;20585;-79
2023/04/20 08:57:02;;;;;;;5.82;5.30;;;;;;;13.84;nan;99061.84;4949286;28;20721;-79
2023/04/20 08:59:29;;;;;;;4.97;4.57;;;;;;;13.69;nan;99064.03;4946560;28;21462;-80
2023/04/20 09:01:55;;;;;;;6.65;5.07;;;;;;;13.58;nan;99071.16;4948929;28;20496;-79
2023/04/20 09:04:27;;;;;;;5.80;5.13;;;;;;;13.38;nan;99073.69;4949125;28;20318;-79
2023/04/20 09:06:55;;;;;;;6.90;5.38;;;;;;;13.14;nan;99065.16;5022390;23;20758;-77
2023/04/20 09:09:21;;;;;;;5.82;5.25;;;;;;;12.88;nan;99054.09;4961275;28;21210;-77
2023/04/20 09:11:58;;;;;;;6.70;4.90;;;;;;;12.65;nan;99056.81;4975579;28;20259;-77
2023/04/20 09:14:23;;;;;;;4.97;4.47;;;;;;;12.42;nan;99048.13;4981244;28;20310;-77
2023/04/20 09:16:51;;;;;;;5.30;4.67;;;;;;;12.23;nan;99053.19;4971972;28;20226;-77
2023/04/20 09:19:24;;;;;;;7.15;5.13;;;;;;;12.12;nan;99054.03;4964270;28;20218;-77
2023/04/20 09:21:52;;;;;;;5.57;5.18;;;;;;;12.07;nan;99054.41;4961029;28;20775;-77
2023/04/20 09:24:22;;;;;;;5.03;4.50;;;;;;;12.10;nan;99053.34;4963808;28;20244;-77
2023/04/20 09:26:48;;;;;;;5.95;4.47;;;;;;;12.17;nan;99039.53;4965792;28;20757;-77
2023/04/20 09:29:22;;;;;;;4.07;3.67;;;;;;;12.19;nan;99044.72;4962970;28;20212;-78
2023/04/20 09:31:48;;;;;;;4.05;3.72;;;;;;;12.24;nan;99039.09;4964727;28;20764;-78
2023/04/20 09:34:14;;;;;;;4.85;3.97;;;;;;;12.33;nan;99036.53;4962842;28;20690;-78
2023/04/20 09:36:45;;;;;;;5.87;3.60;;;;;;;12.50;nan;99024.66;4961891;28;20315;-77
2023/04/20 09:39:13;;;;;;;5.68;3.90;;;;;;;12.91;nan;99030.97;4961002;28;20469;-77
2023/04/20 09:41:40;;;;;;;6.63;4.13;;;;;;;13.42;nan;99030.25;4964642;28;20263;-77
2023/04/20 09:44:07;;;;;;;3.78;3.38;;;;;;;13.66;nan;99022.06;4960403;28;20201;-76
2023/04/20 09:46:35;;;;;;;5.05;3.72;;;;;;;13.59;nan;99020.91;4961210;28;20221;-76
2023/04/20 09:49:20;;;;;;;5.65;4.25;;;;;;;13.35;nan;99015.91;4964560;28;20272;-77
2023/04/20 09:51:46;;;;;;;3.20;2.85;;;;;;;13.34;nan;99024.81;4959730;28;20233;-77
2023/04/20 09:54:12;;;;;;;4.40;3.07;;;;;;;13.36;nan;99025.47;4958133;28;20308;-77
2023/04/20 09:56:38;;;;;;;5.95;3.17;;;;;;;13.63;nan;99018.81;4961545;28;20218;-77
2023/04/20 09:59:04;;;;;;;2.85;2.55;;;;;;;13.89;nan;99020.06;4961746;28;20201;-78
2023/04/20 10:01:33;;;;;;;4.93;3.30;;;;;;;13.75;nan;99016.97;4960842;28;20404;-77
2023/04/20 10:03:59;;;;;;;5.40;3.00;;;;;;;13.66;nan;99027.34;4956088;28;20217;-78
2023/04/20 10:06:28;;;;;;;2.85;2.50;;;;;;;13.66;nan;99022.06;4961413;28;20242;-78
2023/04/20 10:08:54;;;;;;;8.50;3.28;;;;;;;13.72;nan;99023.34;4961745;28;21264;-78
2023/04/20 10:11:30;;;;;;;5.13;2.80;;;;;;;13.83;nan;99023.25;4960627;28;20306;-77
2023/04/20 10:14:12;;;;;;;3.50;2.95;;;;;;;13.84;nan;99019.63;4959435;28;20519;-77
2023/04/20 10:16:38;;;;;;;4.32;3.10;;;;;;;13.81;nan;99022.53;4959495;28;20328;-77
2023/04/20 10:19:03;;;;;;;4.60;3.70;;;;;;;13.73;nan;99019.72;4962040;28;20206;-77
2023/04/20 10:21:33;;;;;;;5.43;3.47;;;;;;;13.56;nan;99018.53;4960423;28;20456;-77
2023/04/20 10:24:01;;;;;;;3.15;2.90;;;;;;;13.37;nan;99011.34;4962855;28;20242;-78
2023/04/20 10:26:44;;;;;;;4.53;3.42;;;;;;;13.31;nan;99017.13;4963418;28;20282;-78
2023/04/20 10:29:11;;;;;;;4.07;2.90;;;;;;;13.22;nan;99018.69;4966288;28;20290;-77
2023/04/20 10:31:40;;;;;;;3.67;2.95;;;;;;;13.16;nan;99024.50;4963970;28;20248;-78
2023/04/20 10:34:07;;;;;;;2.55;2.35;;;;;;;13.12;nan;99027.50;4964090;28;20220;-78
2023/04/20 10:36:36;;;;;;;3.00;2.53;;;;;;;13.10;nan;99018.91;4964495;28;20219;-77
2023/04/20 10:39:14;;;;;;;3.88;2.45;;;;;;;12.96;nan;99014.75;4966097;28;20321;-78
2023/04/20 10:41:50;;;;;;;3.00;2.70;;;;;;;12.94;nan;99014.06;4967465;28;20295;-78
2023/04/20 10:44:15;;;;;;;3.92;2.53;;;;;;;12.89;nan;99010.97;4949197;28;20212;-78
2023/04/20 10:46:41;;;;;;;4.10;3.27;;;;;;;12.87;nan;99018.16;4967863;28;20221;-77
2023/04/20 10:49:15;;;;;;;5.23;2.53;;;;;;;12.91;nan;99011.66;4968540;28;20208;-77
2023/04/20 10:51:51;;;;;;;3.15;2.85;;;;;;;12.96;nan;99013.00;4969269;28;20944;-77
2023/04/20 10:54:18;;;;;;;5.63;3.00;;;;;;;13.03;nan;99008.84;4971216;28;20527;-78
2023/04/20 10:56:45;;;;;;;4.72;3.03;;;;;;;13.09;nan;99006.69;4964402;28;20200;-77
2023/04/20 10:59:13;;;;;;;2.85;2.55;;;;;;;13.14;nan;98999.22;4972971;28;20795;-78
2023/04/20 11:01:40;;;;;;;4.05;2.40;;;;;;;13.18;nan;99000.66;4985403;28;20264;-77
2023/04/20 11:04:10;;;;;;;3.50;3.20;;;;;;;13.21;nan;98990.66;4985107;28;20188;-77
2023/04/20 11:06:41;;;;;;;2.83;2.47;;;;;;;13.25;nan;98992.06;4980653;28;20241;-77
2023/04/20 11:09:22;;;;;;;3.70;2.70;;;;;;;13.24;nan;98992.22;4962600;28;20533;-77
2023/04/20 11:12:00;;;;;;;3.15;2.65;;;;;;;13.09;nan;98988.22;4978064;28;20577;-77
2023/04/20 11:14:27;;;;;;;2.78;2.50;;;;;;;12.97;nan;98987.47;4982150;28;20255;-78
2023/04/20 11:16:53;;;;;;;2.60;2.30;;;;;;;12.89;nan;98990.72;4976868;28;20237;-77
2023/04/20 11:19:24;;;;;;;2.83;2.63;;;;;;;12.86;nan;98988.34;4976885;28;20676;-77
2023/04/20 11:21:50;;;;;;;2.35;2.10;;;;;;;12.79;nan;98987.16;4978812;28;20262;-77
2023/04/20 11:24:19;;;;;;;3.10;2.17;;;;;;;12.71;nan;98982.53;4983271;28;20197;-77
2023/04/20 11:26:48;;;;;;;2.42;2.13;;;;;;;12.69;nan;98986.25;4976937;28;20213;-78
2023/04/20 11:29:29;;;;;;;2.13;1.92;;;;;;;12.72;nan;98986.84;4976734;28;20452;-78
2023/04/20 11:31:54;;;;;;;6.95;2.42;;;;;;;12.81;nan;98978.19;4980135;28;20633;-78
2023/04/20 11:34:21;;;;;;;2.60;2.40;;;;;;;12.91;nan;98973.00;4980711;28;20219;-78
2023/04/20 11:36:47;;;;;;;2.83;2.42;;;;;;;12.97;nan;98971.63;4977082;28;20261;-78
2023/04/20 11:39:13;;;;;;;2.88;2.67;;;;;;;13.01;nan;98973.03;4980322;28;20280;-78
2023/04/20 11:41:38;;;;;;;2.40;2.03;;;;;;;13.08;nan;98974.22;4979900;28;20280;-78
2023/04/20 11:44:07;;;;;;;3.53;2.77;;;;;;;13.23;nan;98972.06;4984216;28;20200;-77
2023/04/20 11:46:36;;;;;;;2.80;2.60;;;;;;;13.30;nan;98965.34;4979533;28;20245;-76
2023/04/20 11:49:03;;;;;;;3.45;2.10;;;;;;;13.29;nan;98966.31;4980167;28;20189;-79
2023/04/20 11:51:30;;;;;;;3.45;2.42;;;;;;;13.27;nan;98970.88;4980066;28;20453;-78
2023/04/20 11:53:55;;;;;;;3.35;2.78;;;;;;;13.24;nan;98961.41;4977319;28;20197;-78
2023/04/20 11:56:21;;;;;;;2.70;2.40;;;;;;;13.35;nan;98965.78;4977477;28;20204;-78